Columbus, Illinois
Current Conditions -  °F | °C
As of 6:17 PM on Friday 21 Nov 2014 (Local Time) from KUIN Reporting Station
Overcast Overcast  
Wind Chill: 27°   Ceiling: 10000
Heat Index: 36°   Visibility: 10mi
Dew Point: 20°   Wind: 14mph
Humidity: 52%   Direction: 150°SSE
Pressure: 30.21"   Gusts: NA
Location:  39.9302°N, 91.3035°W
Report Text: KUIN 220017Z AUTO 15012KT 10SM SCT021 SCT080 OVC100 02/M07 A3021 RMK AO2 T00221067
Loading
Personal Weather Stations






























Interactive Weather Map New forecast layout! Learn more

10-Day Weather Forecast

Advertisements
Track Severe Weather on mobile